sensor_id;sensor_type;location;lat;lon;timestamp;temperature;humidity
16269;DHT22;8242;50.434;8.496;2023-02-01T00:01:47;17.10;94.30
16269;DHT22;8242;50.434;8.496;2023-02-01T00:04:13;17.10;94.40
16269;DHT22;8242;50.434;8.496;2023-02-01T00:06:40;17.10;94.50
16269;DHT22;8242;50.434;8.496;2023-02-01T00:09:06;17.00;94.40
16269;DHT22;8242;50.434;8.496;2023-02-01T00:11:33;17.00;94.50
16269;DHT22;8242;50.434;8.496;2023-02-01T00:14:01;16.90;94.50
16269;DHT22;8242;50.434;8.496;2023-02-01T00:16:28;16.90;94.50
16269;DHT22;8242;50.434;8.496;2023-02-01T00:18:57;16.90;94.60
16269;DHT22;8242;50.434;8.496;2023-02-01T00:21:23;16.90;94.60
16269;DHT22;8242;50.434;8.496;2023-02-01T00:23:50;16.80;94.50
16269;DHT22;8242;50.434;8.496;2023-02-01T00:26:17;16.70;94.50
16269;DHT22;8242;50.434;8.496;2023-02-01T00:28:44;16.70;94.70
16269;DHT22;8242;50.434;8.496;2023-02-01T00:31:12;16.70;94.70
16269;DHT22;8242;50.434;8.496;2023-02-01T00:33:40;16.70;94.80
16269;DHT22;8242;50.434;8.496;2023-02-01T00:36:26;16.60;94.80
16269;DHT22;8242;50.434;8.496;2023-02-01T00:38:53;16.70;95.00
16269;DHT22;8242;50.434;8.496;2023-02-01T00:41:20;16.70;94.90
16269;DHT22;8242;50.434;8.496;2023-02-01T00:43:47;16.70;95.00
16269;DHT22;8242;50.434;8.496;2023-02-01T00:46:15;16.60;95.00
16269;DHT22;8242;50.434;8.496;2023-02-01T00:48:41;16.60;95.10
16269;DHT22;8242;50.434;8.496;2023-02-01T00:51:08;16.60;95.10
16269;DHT22;8242;50.434;8.496;2023-02-01T00:53:37;16.60;95.20
16269;DHT22;8242;50.434;8.496;2023-02-01T00:56:04;16.60;95.20
16269;DHT22;8242;50.434;8.496;2023-02-01T00:58:31;16.60;95.20
16269;DHT22;8242;50.434;8.496;2023-02-01T01:01:02;16.60;95.20
16269;DHT22;8242;50.434;8.496;2023-02-01T01:03:29;16.60;95.20
16269;DHT22;8242;50.434;8.496;2023-02-01T01:05:58;16.60;95.20
16269;DHT22;8242;50.434;8.496;2023-02-01T01:08:25;16.50;95.20
16269;DHT22;8242;50.434;8.496;2023-02-01T01:10:53;16.50;95.30
16269;DHT22;8242;50.434;8.496;2023-02-01T01:13:20;16.50;95.20
16269;DHT22;8242;50.434;8.496;2023-02-01T01:15:46;16.50;95.20
16269;DHT22;8242;50.434;8.496;2023-02-01T01:18:13;16.50;95.30
16269;DHT22;8242;50.434;8.496;2023-02-01T01:20:40;16.50;95.40
16269;DHT22;8242;50.434;8.496;2023-02-01T01:23:07;16.50;95.30
16269;DHT22;8242;50.434;8.496;2023-02-01T01:25:36;16.50;95.30
16269;DHT22;8242;50.434;8.496;2023-02-01T01:28:04;16.50;95.30
16269;DHT22;8242;50.434;8.496;2023-02-01T01:30:31;16.50;95.20
16269;DHT22;8242;50.434;8.496;2023-02-01T01:32:57;16.60;94.90
16269;DHT22;8242;50.434;8.496;2023-02-01T01:35:24;16.70;94.80
16269;DHT22;8242;50.434;8.496;2023-02-01T01:37:51;16.70;94.50
16269;DHT22;8242;50.434;8.496;2023-02-01T01:40:17;16.80;94.50
16269;DHT22;8242;50.434;8.496;2023-02-01T01:42:44;16.70;94.30
16269;DHT22;8242;50.434;8.496;2023-02-01T01:45:18;16.70;94.30
16269;DHT22;8242;50.434;8.496;2023-02-01T01:47:47;16.70;94.30
16269;DHT22;8242;50.434;8.496;2023-02-01T01:50:16;16.70;94.30
16269;DHT22;8242;50.434;8.496;2023-02-01T01:52:43;16.60;94.30
16269;DHT22;8242;50.434;8.496;2023-02-01T01:55:13;16.60;94.30
16269;DHT22;8242;50.434;8.496;2023-02-01T01:57:41;16.60;94.40
16269;DHT22;8242;50.434;8.496;2023-02-01T02:00:10;16.60;94.40
16269;DHT22;8242;50.434;8.496;2023-02-01T02:02:39;16.50;94.40
16269;DHT22;8242;50.434;8.496;2023-02-01T02:05:07;16.50;94.40
16269;DHT22;8242;50.434;8.496;2023-02-01T02:07:35;16.50;94.40
16269;DHT22;8242;50.434;8.496;2023-02-01T02:10:04;16.50;94.60
16269;DHT22;8242;50.434;8.496;2023-02-01T02:12:31;16.40;94.60
16269;DHT22;8242;50.434;8.496;2023-02-01T02:14:58;16.40;94.60
16269;DHT22;8242;50.434;8.496;2023-02-01T02:17:28;16.40;94.90
16269;DHT22;8242;50.434;8.496;2023-02-01T02:20:06;16.40;94.90
16269;DHT22;8242;50.434;8.496;2023-02-01T02:22:48;16.40;95.10
16269;DHT22;8242;50.434;8.496;2023-02-01T02:25:28;16.40;95.20
16269;DHT22;8242;50.434;8.496;2023-02-01T02:27:58;16.30;95.30
16269;DHT22;8242;50.434;8.496;2023-02-01T02:30:34;16.30;95.40
16269;DHT22;8242;50.434;8.496;2023-02-01T02:35:58;16.30;95.30
16269;DHT22;8242;50.434;8.496;2023-02-01T02:38:27;16.30;95.30
16269;DHT22;8242;50.434;8.496;2023-02-01T02:40:57;16.30;95.40
16269;DHT22;8242;50.434;8.496;2023-02-01T02:43:27;16.30;95.40
16269;DHT22;8242;50.434;8.496;2023-02-01T02:46:15;16.30;95.30
16269;DHT22;8242;50.434;8.496;2023-02-01T02:49:01;16.30;95.40
16269;DHT22;8242;50.434;8.496;2023-02-01T02:51:31;16.30;95.40
16269;DHT22;8242;50.434;8.496;2023-02-01T02:54:17;16.30;95.40
16269;DHT22;8242;50.434;8.496;2023-02-01T02:57:03;16.30;95.30
16269;DHT22;8242;50.434;8.496;2023-02-01T02:59:49;16.20;95.20
16269;DHT22;8242;50.434;8.496;2023-02-01T03:02:33;16.30;95.30
16269;DHT22;8242;50.434;8.496;2023-02-01T03:05:18;16.30;95.40
16269;DHT22;8242;50.434;8.496;2023-02-01T03:07:49;16.30;95.50
16269;DHT22;8242;50.434;8.496;2023-02-01T03:10:26;16.30;95.40
16269;DHT22;8242;50.434;8.496;2023-02-01T03:12:54;16.30;95.60
16269;DHT22;8242;50.434;8.496;2023-02-01T03:15:23;16.30;95.60
16269;DHT22;8242;50.434;8.496;2023-02-01T03:17:51;16.30;95.60
16269;DHT22;8242;50.434;8.496;2023-02-01T03:20:21;16.30;95.50
16269;DHT22;8242;50.434;8.496;2023-02-01T03:22:50;16.30;95.40
16269;DHT22;8242;50.434;8.496;2023-02-01T03:25:18;16.30;95.40
16269;DHT22;8242;50.434;8.496;2023-02-01T03:27:47;16.30;95.20
16269;DHT22;8242;50.434;8.496;2023-02-01T03:30:16;16.40;95.20
16269;DHT22;8242;50.434;8.496;2023-02-01T03:32:44;16.40;95.10
16269;DHT22;8242;50.434;8.496;2023-02-01T03:35:26;16.40;95.10
16269;DHT22;8242;50.434;8.496;2023-02-01T03:37:56;16.40;95.00
16269;DHT22;8242;50.434;8.496;2023-02-01T03:40:23;16.40;94.90
16269;DHT22;8242;50.434;8.496;2023-02-01T03:42:51;16.40;94.90
16269;DHT22;8242;50.434;8.496;2023-02-01T03:45:21;16.40;94.90
16269;DHT22;8242;50.434;8.496;2023-02-01T03:47:50;16.40;94.90
16269;DHT22;8242;50.434;8.496;2023-02-01T03:50:17;16.30;94.90
16269;DHT22;8242;50.434;8.496;2023-02-01T03:52:47;16.30;94.90
16269;DHT22;8242;50.434;8.496;2023-02-01T03:55:16;16.30;94.90
16269;DHT22;8242;50.434;8.496;2023-02-01T03:57:46;16.30;94.90
16269;DHT22;8242;50.434;8.496;2023-02-01T04:00:16;16.30;94.90
16269;DHT22;8242;50.434;8.496;2023-02-01T04:02:43;16.30;94.90
16269;DHT22;8242;50.434;8.496;2023-02-01T04:05:10;16.30;95.00
16269;DHT22;8242;50.434;8.496;2023-02-01T04:07:36;16.20;94.90
16269;DHT22;8242;50.434;8.496;2023-02-01T04:10:03;16.20;95.00
16269;DHT22;8242;50.434;8.496;2023-02-01T04:12:31;16.20;94.90
16269;DHT22;8242;50.434;8.496;2023-02-01T04:14:58;16.20;94.90
16269;DHT22;8242;50.434;8.496;2023-02-01T04:17:24;16.20;94.80
16269;DHT22;8242;50.434;8.496;2023-02-01T04:19:51;16.20;94.80
16269;DHT22;8242;50.434;8.496;2023-02-01T04:22:17;16.20;94.90
16269;DHT22;8242;50.434;8.496;2023-02-01T04:24:44;16.20;94.80
16269;DHT22;8242;50.434;8.496;2023-02-01T04:27:10;16.20;94.90
16269;DHT22;8242;50.434;8.496;2023-02-01T04:29:38;16.20;95.00
16269;DHT22;8242;50.434;8.496;2023-02-01T04:32:05;16.20;94.90
16269;DHT22;8242;50.434;8.496;2023-02-01T04:34:31;16.20;95.00
16269;DHT22;8242;50.434;8.496;2023-02-01T04:36:58;16.20;95.10
16269;DHT22;8242;50.434;8.496;2023-02-01T04:39:24;16.20;95.10
16269;DHT22;8242;50.434;8.496;2023-02-01T04:41:51;16.20;95.10
16269;DHT22;8242;50.434;8.496;2023-02-01T04:44:18;16.20;95.10
16269;DHT22;8242;50.434;8.496;2023-02-01T04:46:46;16.20;95.20
16269;DHT22;8242;50.434;8.496;2023-02-01T04:49:13;16.20;95.40
16269;DHT22;8242;50.434;8.496;2023-02-01T04:51:40;16.20;95.50
16269;DHT22;8242;50.434;8.496;2023-02-01T04:54:07;16.20;95.30
16269;DHT22;8242;50.434;8.496;2023-02-01T04:56:34;16.20;95.40
16269;DHT22;8242;50.434;8.496;2023-02-01T04:59:01;16.20;95.30
16269;DHT22;8242;50.434;8.496;2023-02-01T05:01:28;16.20;95.40
16269;DHT22;8242;50.434;8.496;2023-02-01T05:03:56;16.20;95.50
16269;DHT22;8242;50.434;8.496;2023-02-01T05:06:23;16.20;95.50
16269;DHT22;8242;50.434;8.496;2023-02-01T05:08:49;16.20;95.50
16269;DHT22;8242;50.434;8.496;2023-02-01T05:11:16;16.10;95.40
16269;DHT22;8242;50.434;8.496;2023-02-01T05:13:56;16.10;95.40
16269;DHT22;8242;50.434;8.496;2023-02-01T05:16:23;16.10;95.40
16269;DHT22;8242;50.434;8.496;2023-02-01T05:18:49;16.10;95.40
16269;DHT22;8242;50.434;8.496;2023-02-01T05:21:17;16.10;95.40
16269;DHT22;8242;50.434;8.496;2023-02-01T05:23:44;16.10;95.30
16269;DHT22;8242;50.434;8.496;2023-02-01T05:26:28;16.10;95.30
16269;DHT22;8242;50.434;8.496;2023-02-01T05:28:55;16.10;95.30
16269;DHT22;8242;50.434;8.496;2023-02-01T05:31:21;16.00;95.30
16269;DHT22;8242;50.434;8.496;2023-02-01T05:33:48;16.00;95.30
16269;DHT22;8242;50.434;8.496;2023-02-01T05:36:15;16.00;95.30
16269;DHT22;8242;50.434;8.496;2023-02-01T05:38:42;16.00;95.30
16269;DHT22;8242;50.434;8.496;2023-02-01T05:41:09;16.00;95.30
16269;DHT22;8242;50.434;8.496;2023-02-01T05:43:35;16.10;95.50
16269;DHT22;8242;50.434;8.496;2023-02-01T05:46:02;16.10;95.60
16269;DHT22;8242;50.434;8.496;2023-02-01T05:48:29;16.20;95.80
16269;DHT22;8242;50.434;8.496;2023-02-01T05:50:55;16.30;95.50
16269;DHT22;8242;50.434;8.496;2023-02-01T05:53:22;16.40;95.10
16269;DHT22;8242;50.434;8.496;2023-02-01T05:55:49;16.40;95.10
16269;DHT22;8242;50.434;8.496;2023-02-01T05:58:16;16.40;95.30
16269;DHT22;8242;50.434;8.496;2023-02-01T06:00:43;16.40;95.20
16269;DHT22;8242;50.434;8.496;2023-02-01T06:03:09;16.40;95.20
16269;DHT22;8242;50.434;8.496;2023-02-01T06:05:35;16.40;95.30
16269;DHT22;8242;50.434;8.496;2023-02-01T06:08:03;16.40;95.30
16269;DHT22;8242;50.434;8.496;2023-02-01T06:10:30;16.40;95.30
16269;DHT22;8242;50.434;8.496;2023-02-01T06:12:57;16.40;95.30
16269;DHT22;8242;50.434;8.496;2023-02-01T06:15:24;16.40;95.30
16269;DHT22;8242;50.434;8.496;2023-02-01T06:17:50;16.40;95.40
16269;DHT22;8242;50.434;8.496;2023-02-01T06:20:17;16.40;95.40
16269;DHT22;8242;50.434;8.496;2023-02-01T06:22:44;16.40;95.40
16269;DHT22;8242;50.434;8.496;2023-02-01T06:25:10;16.30;95.20
16269;DHT22;8242;50.434;8.496;2023-02-01T06:27:37;16.30;95.20
16269;DHT22;8242;50.434;8.496;2023-02-01T06:30:05;16.30;95.00
16269;DHT22;8242;50.434;8.496;2023-02-01T06:32:32;16.30;94.90
16269;DHT22;8242;50.434;8.496;2023-02-01T06:34:59;16.30;94.80
16269;DHT22;8242;50.434;8.496;2023-02-01T06:37:26;16.30;94.60
16269;DHT22;8242;50.434;8.496;2023-02-01T06:39:54;16.20;94.90
16269;DHT22;8242;50.434;8.496;2023-02-01T06:42:21;16.30;95.10
16269;DHT22;8242;50.434;8.496;2023-02-01T06:44:48;16.30;95.50
16269;DHT22;8242;50.434;8.496;2023-02-01T06:47:16;16.30;95.20
16269;DHT22;8242;50.434;8.496;2023-02-01T06:49:42;16.30;95.20
16269;DHT22;8242;50.434;8.496;2023-02-01T06:52:09;16.40;94.60
16269;DHT22;8242;50.434;8.496;2023-02-01T06:54:35;16.30;94.60
16269;DHT22;8242;50.434;8.496;2023-02-01T06:57:02;16.30;94.60
16269;DHT22;8242;50.434;8.496;2023-02-01T06:59:29;16.30;94.60
16269;DHT22;8242;50.434;8.496;2023-02-01T07:01:55;16.30;94.40
16269;DHT22;8242;50.434;8.496;2023-02-01T07:04:23;16.30;94.30
16269;DHT22;8242;50.434;8.496;2023-02-01T07:06:50;16.30;94.30
16269;DHT22;8242;50.434;8.496;2023-02-01T07:09:16;16.30;94.20
16269;DHT22;8242;50.434;8.496;2023-02-01T07:11:43;16.40;94.10
16269;DHT22;8242;50.434;8.496;2023-02-01T07:14:09;16.40;94.30
16269;DHT22;8242;50.434;8.496;2023-02-01T07:16:36;16.50;94.00
16269;DHT22;8242;50.434;8.496;2023-02-01T07:19:02;16.60;93.90
16269;DHT22;8242;50.434;8.496;2023-02-01T07:21:30;16.60;93.80
16269;DHT22;8242;50.434;8.496;2023-02-01T07:23:57;16.60;93.70
16269;DHT22;8242;50.434;8.496;2023-02-01T07:26:24;16.60;93.80
16269;DHT22;8242;50.434;8.496;2023-02-01T07:28:50;16.60;93.90
16269;DHT22;8242;50.434;8.496;2023-02-01T07:31:18;16.50;93.90
16269;DHT22;8242;50.434;8.496;2023-02-01T07:33:46;16.50;93.90
16269;DHT22;8242;50.434;8.496;2023-02-01T07:36:14;16.50;93.90
16269;DHT22;8242;50.434;8.496;2023-02-01T07:38:42;16.50;93.90
16269;DHT22;8242;50.434;8.496;2023-02-01T07:41:09;16.50;93.90
16269;DHT22;8242;50.434;8.496;2023-02-01T07:43:35;16.40;93.90
16269;DHT22;8242;50.434;8.496;2023-02-01T07:46:02;16.40;93.90
16269;DHT22;8242;50.434;8.496;2023-02-01T07:48:30;16.40;94.00
16269;DHT22;8242;50.434;8.496;2023-02-01T07:50:57;16.30;93.90
16269;DHT22;8242;50.434;8.496;2023-02-01T07:53:24;16.30;94.00
16269;DHT22;8242;50.434;8.496;2023-02-01T07:55:52;16.30;93.90
16269;DHT22;8242;50.434;8.496;2023-02-01T07:58:18;16.30;93.90
16269;DHT22;8242;50.434;8.496;2023-02-01T08:00:45;16.30;93.90
16269;DHT22;8242;50.434;8.496;2023-02-01T08:03:29;16.30;93.90
16269;DHT22;8242;50.434;8.496;2023-02-01T08:05:56;16.20;93.90
16269;DHT22;8242;50.434;8.496;2023-02-01T08:08:22;16.20;93.90
16269;DHT22;8242;50.434;8.496;2023-02-01T08:10:49;16.20;93.90
16269;DHT22;8242;50.434;8.496;2023-02-01T08:13:17;16.10;93.90
16269;DHT22;8242;50.434;8.496;2023-02-01T08:15:44;16.10;93.90
16269;DHT22;8242;50.434;8.496;2023-02-01T08:18:10;16.10;93.90
16269;DHT22;8242;50.434;8.496;2023-02-01T08:20:41;16.20;93.80
16269;DHT22;8242;50.434;8.496;2023-02-01T08:23:10;16.20;93.80
16269;DHT22;8242;50.434;8.496;2023-02-01T08:25:37;16.20;93.70
16269;DHT22;8242;50.434;8.496;2023-02-01T08:28:04;16.20;93.60
16269;DHT22;8242;50.434;8.496;2023-02-01T08:30:32;16.30;93.60
16269;DHT22;8242;50.434;8.496;2023-02-01T08:32:58;16.40;93.60
16269;DHT22;8242;50.434;8.496;2023-02-01T08:35:26;16.40;93.50
16269;DHT22;8242;50.434;8.496;2023-02-01T08:37:53;16.40;93.40
16269;DHT22;8242;50.434;8.496;2023-02-01T08:40:19;16.40;93.40
16269;DHT22;8242;50.434;8.496;2023-02-01T08:42:48;16.40;93.40
16269;DHT22;8242;50.434;8.496;2023-02-01T08:45:18;16.50;93.40
16269;DHT22;8242;50.434;8.496;2023-02-01T08:47:47;16.40;93.40
16269;DHT22;8242;50.434;8.496;2023-02-01T08:50:13;16.40;93.40
16269;DHT22;8242;50.434;8.496;2023-02-01T08:52:40;16.40;93.50
16269;DHT22;8242;50.434;8.496;2023-02-01T08:55:07;16.30;93.40
16269;DHT22;8242;50.434;8.496;2023-02-01T08:57:34;16.30;93.50
16269;DHT22;8242;50.434;8.496;2023-02-01T09:00:00;16.30;93.90
16269;DHT22;8242;50.434;8.496;2023-02-01T09:02:27;16.30;93.80
16269;DHT22;8242;50.434;8.496;2023-02-01T09:04:56;16.30;93.80
16269;DHT22;8242;50.434;8.496;2023-02-01T09:07:23;16.30;93.80
16269;DHT22;8242;50.434;8.496;2023-02-01T09:09:49;16.30;93.80
16269;DHT22;8242;50.434;8.496;2023-02-01T09:12:16;16.30;93.80
16269;DHT22;8242;50.434;8.496;2023-02-01T09:14:42;16.30;93.90
16269;DHT22;8242;50.434;8.496;2023-02-01T09:17:09;16.30;93.90
16269;DHT22;8242;50.434;8.496;2023-02-01T09:19:35;16.30;94.00
16269;DHT22;8242;50.434;8.496;2023-02-01T09:22:03;16.30;94.00
16269;DHT22;8242;50.434;8.496;2023-02-01T09:24:30;16.20;94.00
16269;DHT22;8242;50.434;8.496;2023-02-01T09:26:56;16.20;94.10
16269;DHT22;8242;50.434;8.496;2023-02-01T09:29:23;16.10;94.00
16269;DHT22;8242;50.434;8.496;2023-02-01T09:31:49;16.10;94.10
16269;DHT22;8242;50.434;8.496;2023-02-01T09:34:16;16.10;94.00
16269;DHT22;8242;50.434;8.496;2023-02-01T09:36:42;16.10;94.00
16269;DHT22;8242;50.434;8.496;2023-02-01T09:39:10;16.10;93.90
16269;DHT22;8242;50.434;8.496;2023-02-01T09:41:40;16.30;93.90
16269;DHT22;8242;50.434;8.496;2023-02-01T09:44:12;16.30;93.70
16269;DHT22;8242;50.434;8.496;2023-02-01T09:46:43;16.40;93.60
16269;DHT22;8242;50.434;8.496;2023-02-01T09:49:11;16.50;93.50
16269;DHT22;8242;50.434;8.496;2023-02-01T09:51:40;16.60;93.50
16269;DHT22;8242;50.434;8.496;2023-02-01T09:54:09;16.60;93.40
16269;DHT22;8242;50.434;8.496;2023-02-01T09:56:40;16.60;93.40
16269;DHT22;8242;50.434;8.496;2023-02-01T09:59:09;16.60;93.40
16269;DHT22;8242;50.434;8.496;2023-02-01T10:01:39;16.60;93.40
16269;DHT22;8242;50.434;8.496;2023-02-01T10:04:07;16.50;93.40
16269;DHT22;8242;50.434;8.496;2023-02-01T10:06:37;16.50;93.50
16269;DHT22;8242;50.434;8.496;2023-02-01T10:09:10;16.50;93.50
16269;DHT22;8242;50.434;8.496;2023-02-01T10:11:45;16.40;93.80
16269;DHT22;8242;50.434;8.496;2023-02-01T10:14:20;16.40;93.60
16269;DHT22;8242;50.434;8.496;2023-02-01T10:16:54;16.40;93.60
16269;DHT22;8242;50.434;8.496;2023-02-01T10:19:25;16.30;93.60
16269;DHT22;8242;50.434;8.496;2023-02-01T10:21:59;16.30;93.60
16269;DHT22;8242;50.434;8.496;2023-02-01T10:24:37;16.30;93.60
16269;DHT22;8242;50.434;8.496;2023-02-01T10:27:11;16.30;93.70
16269;DHT22;8242;50.434;8.496;2023-02-01T10:29:38;16.20;93.70
16269;DHT22;8242;50.434;8.496;2023-02-01T10:32:09;16.20;93.70
16269;DHT22;8242;50.434;8.496;2023-02-01T10:34:38;16.20;93.80
16269;DHT22;8242;50.434;8.496;2023-02-01T10:37:08;16.10;93.70
16269;DHT22;8242;50.434;8.496;2023-02-01T10:39:36;16.10;93.80
16269;DHT22;8242;50.434;8.496;2023-02-01T10:42:02;16.10;93.80
16269;DHT22;8242;50.434;8.496;2023-02-01T10:44:31;16.10;93.80
16269;DHT22;8242;50.434;8.496;2023-02-01T10:47:04;16.00;93.80
16269;DHT22;8242;50.434;8.496;2023-02-01T10:49:33;16.00;94.10
16269;DHT22;8242;50.434;8.496;2023-02-01T10:52:01;16.00;93.80
16269;DHT22;8242;50.434;8.496;2023-02-01T10:54:32;16.10;93.80
16269;DHT22;8242;50.434;8.496;2023-02-01T10:56:59;16.20;93.70
16269;DHT22;8242;50.434;8.496;2023-02-01T10:59:27;16.30;93.60
16269;DHT22;8242;50.434;8.496;2023-02-01T11:01:58;16.30;93.50
16269;DHT22;8242;50.434;8.496;2023-02-01T11:04:26;16.50;93.40
16269;DHT22;8242;50.434;8.496;2023-02-01T11:06:53;16.60;93.20
16269;DHT22;8242;50.434;8.496;2023-02-01T11:09:21;16.80;93.10
16269;DHT22;8242;50.434;8.496;2023-02-01T11:11:52;16.90;93.10
16269;DHT22;8242;50.434;8.496;2023-02-01T11:14:20;16.90;93.00
16269;DHT22;8242;50.434;8.496;2023-02-01T11:16:52;16.90;93.10
16269;DHT22;8242;50.434;8.496;2023-02-01T11:19:20;16.80;93.10
16269;DHT22;8242;50.434;8.496;2023-02-01T11:21:48;16.80;93.20
16269;DHT22;8242;50.434;8.496;2023-02-01T11:24:16;16.70;93.30
16269;DHT22;8242;50.434;8.496;2023-02-01T11:26:46;16.70;93.40
16269;DHT22;8242;50.434;8.496;2023-02-01T11:29:13;16.60;93.40
16269;DHT22;8242;50.434;8.496;2023-02-01T11:31:44;16.60;93.50
16269;DHT22;8242;50.434;8.496;2023-02-01T11:34:12;16.60;93.50
16269;DHT22;8242;50.434;8.496;2023-02-01T11:36:41;16.60;93.50
16269;DHT22;8242;50.434;8.496;2023-02-01T11:39:17;16.40;93.40
16269;DHT22;8242;50.434;8.496;2023-02-01T11:41:54;16.40;93.60
16269;DHT22;8242;50.434;8.496;2023-02-01T11:44:31;16.30;93.60
16269;DHT22;8242;50.434;8.496;2023-02-01T11:49:38;16.20;93.60
16269;DHT22;8242;50.434;8.496;2023-02-01T11:52:09;16.20;93.70
16269;DHT22;8242;50.434;8.496;2023-02-01T11:54:48;16.20;93.70
16269;DHT22;8242;50.434;8.496;2023-02-01T11:57:22;16.20;93.70
16269;DHT22;8242;50.434;8.496;2023-02-01T12:00:02;16.20;93.80
16269;DHT22;8242;50.434;8.496;2023-02-01T12:02:48;16.20;93.80
16269;DHT22;8242;50.434;8.496;2023-02-01T12:05:22;16.20;93.80
16269;DHT22;8242;50.434;8.496;2023-02-01T12:08:01;16.20;93.90
16269;DHT22;8242;50.434;8.496;2023-02-01T12:10:33;16.20;93.80
16269;DHT22;8242;50.434;8.496;2023-02-01T12:13:11;16.20;93.90
16269;DHT22;8242;50.434;8.496;2023-02-01T12:15:43;16.20;93.90
16269;DHT22;8242;50.434;8.496;2023-02-01T12:18:20;16.30;93.80
16269;DHT22;8242;50.434;8.496;2023-02-01T12:20:58;16.30;93.80
16269;DHT22;8242;50.434;8.496;2023-02-01T12:23:32;16.40;93.80
16269;DHT22;8242;50.434;8.496;2023-02-01T12:26:05;16.40;93.70
16269;DHT22;8242;50.434;8.496;2023-02-01T12:28:37;16.50;93.80
16269;DHT22;8242;50.434;8.496;2023-02-01T12:31:09;16.50;93.70
16269;DHT22;8242;50.434;8.496;2023-02-01T12:33:41;16.50;93.70
16269;DHT22;8242;50.434;8.496;2023-02-01T12:36:12;16.50;93.70
16269;DHT22;8242;50.434;8.496;2023-02-01T12:38:51;16.50;93.70
16269;DHT22;8242;50.434;8.496;2023-02-01T12:41:32;16.40;93.70
16269;DHT22;8242;50.434;8.496;2023-02-01T12:44:03;16.40;93.70
16269;DHT22;8242;50.434;8.496;2023-02-01T12:46:33;16.40;93.70
16269;DHT22;8242;50.434;8.496;2023-02-01T12:49:02;16.40;93.60
16269;DHT22;8242;50.434;8.496;2023-02-01T12:51:32;16.40;93.60
16269;DHT22;8242;50.434;8.496;2023-02-01T12:54:02;16.40;93.70
16269;DHT22;8242;50.434;8.496;2023-02-01T12:56:31;16.40;93.70
16269;DHT22;8242;50.434;8.496;2023-02-01T12:59:01;16.40;93.70
16269;DHT22;8242;50.434;8.496;2023-02-01T13:01:30;16.40;93.70
16269;DHT22;8242;50.434;8.496;2023-02-01T13:04:01;16.40;93.80
16269;DHT22;8242;50.434;8.496;2023-02-01T13:06:31;16.30;93.80
16269;DHT22;8242;50.434;8.496;2023-02-01T13:09:02;16.30;93.90
16269;DHT22;8242;50.434;8.496;2023-02-01T13:11:31;16.20;93.90
16269;DHT22;8242;50.434;8.496;2023-02-01T13:14:00;16.20;93.90
16269;DHT22;8242;50.434;8.496;2023-02-01T13:16:29;16.10;94.20
16269;DHT22;8242;50.434;8.496;2023-02-01T13:19:08;16.10;93.90
16269;DHT22;8242;50.434;8.496;2023-02-01T13:21:38;16.00;93.90
16269;DHT22;8242;50.434;8.496;2023-02-01T13:24:07;16.00;93.90
16269;DHT22;8242;50.434;8.496;2023-02-01T13:26:41;16.00;93.90
16269;DHT22;8242;50.434;8.496;2023-02-01T13:29:08;16.00;93.80
16269;DHT22;8242;50.434;8.496;2023-02-01T13:31:48;16.10;93.80
16269;DHT22;8242;50.434;8.496;2023-02-01T13:34:28;16.20;93.70
16269;DHT22;8242;50.434;8.496;2023-02-01T13:37:04;16.30;93.60
16269;DHT22;8242;50.434;8.496;2023-02-01T13:39:41;16.50;93.50
16269;DHT22;8242;50.434;8.496;2023-02-01T13:42:14;16.50;93.30
16269;DHT22;8242;50.434;8.496;2023-02-01T13:44:42;16.60;93.40
16269;DHT22;8242;50.434;8.496;2023-02-01T13:47:12;16.60;93.40
16269;DHT22;8242;50.434;8.496;2023-02-01T13:49:42;16.50;93.30
16269;DHT22;8242;50.434;8.496;2023-02-01T13:52:17;16.50;93.40
16269;DHT22;8242;50.434;8.496;2023-02-01T13:54:48;16.50;93.40
16269;DHT22;8242;50.434;8.496;2023-02-01T13:57:32;16.40;93.50
16269;DHT22;8242;50.434;8.496;2023-02-01T14:00:07;16.40;93.50
16269;DHT22;8242;50.434;8.496;2023-02-01T14:02:49;16.40;93.50
16269;DHT22;8242;50.434;8.496;2023-02-01T14:08:02;16.30;93.50
16269;DHT22;8242;50.434;8.496;2023-02-01T14:10:48;16.40;93.50
16269;DHT22;8242;50.434;8.496;2023-02-01T14:13:22;16.40;93.50
16269;DHT22;8242;50.434;8.496;2023-02-01T14:16:10;16.30;93.40
16269;DHT22;8242;50.434;8.496;2023-02-01T14:18:54;16.30;93.50
16269;DHT22;8242;50.434;8.496;2023-02-01T14:21:24;16.20;93.50
16269;DHT22;8242;50.434;8.496;2023-02-01T14:23:55;16.20;93.50
16269;DHT22;8242;50.434;8.496;2023-02-01T14:26:27;16.20;93.50
16269;DHT22;8242;50.434;8.496;2023-02-01T14:29:14;16.20;93.50
16269;DHT22;8242;50.434;8.496;2023-02-01T14:31:45;16.10;93.50
16269;DHT22;8242;50.434;8.496;2023-02-01T14:34:18;16.10;93.60
16269;DHT22;8242;50.434;8.496;2023-02-01T14:36:46;16.10;93.70
16269;DHT22;8242;50.434;8.496;2023-02-01T14:39:25;16.00;93.70
16269;DHT22;8242;50.434;8.496;2023-02-01T14:41:55;16.00;93.80
16269;DHT22;8242;50.434;8.496;2023-02-01T14:44:23;16.00;93.80
16269;DHT22;8242;50.434;8.496;2023-02-01T14:49:52;16.10;93.60
16269;DHT22;8242;50.434;8.496;2023-02-01T14:52:20;16.30;93.50
16269;DHT22;8242;50.434;8.496;2023-02-01T14:54:49;16.40;93.40
16269;DHT22;8242;50.434;8.496;2023-02-01T14:57:20;16.50;93.30
16269;DHT22;8242;50.434;8.496;2023-02-01T14:59:47;16.60;93.20
16269;DHT22;8242;50.434;8.496;2023-02-01T15:02:18;16.70;93.20
16269;DHT22;8242;50.434;8.496;2023-02-01T15:04:46;16.70;93.20
16269;DHT22;8242;50.434;8.496;2023-02-01T15:07:13;16.60;93.10
16269;DHT22;8242;50.434;8.496;2023-02-01T15:09:42;16.60;93.30
16269;DHT22;8242;50.434;8.496;2023-02-01T15:12:15;16.60;93.30
16269;DHT22;8242;50.434;8.496;2023-02-01T15:14:44;16.50;93.30
16269;DHT22;8242;50.434;8.496;2023-02-01T15:17:18;16.50;93.30
16269;DHT22;8242;50.434;8.496;2023-02-01T15:19:52;16.50;93.40
16269;DHT22;8242;50.434;8.496;2023-02-01T15:22:18;16.40;93.40
16269;DHT22;8242;50.434;8.496;2023-02-01T15:24:51;16.40;93.50
16269;DHT22;8242;50.434;8.496;2023-02-01T15:27:17;16.30;93.50
16269;DHT22;8242;50.434;8.496;2023-02-01T15:29:45;16.30;93.60
16269;DHT22;8242;50.434;8.496;2023-02-01T15:34:53;16.20;93.60
16269;DHT22;8242;50.434;8.496;2023-02-01T15:37:20;16.20;93.70
16269;DHT22;8242;50.434;8.496;2023-02-01T15:40:03;16.20;93.70
16269;DHT22;8242;50.434;8.496;2023-02-01T15:42:29;16.10;93.50
16269;DHT22;8242;50.434;8.496;2023-02-01T15:44:57;16.10;93.70
16269;DHT22;8242;50.434;8.496;2023-02-01T15:47:25;16.10;93.60
16269;DHT22;8242;50.434;8.496;2023-02-01T15:49:53;16.10;93.70
16269;DHT22;8242;50.434;8.496;2023-02-01T15:52:22;16.10;93.80
16269;DHT22;8242;50.434;8.496;2023-02-01T15:54:50;16.10;93.80
16269;DHT22;8242;50.434;8.496;2023-02-01T15:57:18;16.10;93.80
16269;DHT22;8242;50.434;8.496;2023-02-01T15:59:46;16.20;93.90
16269;DHT22;8242;50.434;8.496;2023-02-01T16:02:27;16.10;93.80
16269;DHT22;8242;50.434;8.496;2023-02-01T16:04:53;16.20;93.90
16269;DHT22;8242;50.434;8.496;2023-02-01T16:07:22;16.20;93.90
16269;DHT22;8242;50.434;8.496;2023-02-01T16:09:52;16.10;93.90
16269;DHT22;8242;50.434;8.496;2023-02-01T16:12:23;16.20;93.80
16269;DHT22;8242;50.434;8.496;2023-02-01T16:14:50;16.20;93.70